sensor_id;sensor_type;location;lat;lon;timestamp;temperature;humidity
21261;DHT22;10788;47.930;9.766;2023-06-14T00:01:35;13.60;92.40
21261;DHT22;10788;47.930;9.766;2023-06-14T00:04:01;13.60;92.70
21261;DHT22;10788;47.930;9.766;2023-06-14T00:06:28;13.60;92.90
21261;DHT22;10788;47.930;9.766;2023-06-14T00:08:54;13.40;93.00
21261;DHT22;10788;47.930;9.766;2023-06-14T00:11:20;13.40;93.40
21261;DHT22;10788;47.930;9.766;2023-06-14T00:13:46;13.30;93.50
21261;DHT22;10788;47.930;9.766;2023-06-14T00:16:12;13.30;93.40
21261;DHT22;10788;47.930;9.766;2023-06-14T00:18:38;13.40;93.80
21261;DHT22;10788;47.930;9.766;2023-06-14T00:21:04;13.30;93.80
21261;DHT22;10788;47.930;9.766;2023-06-14T00:23:29;13.20;94.10
21261;DHT22;10788;47.930;9.766;2023-06-14T00:25:55;13.20;94.20
21261;DHT22;10788;47.930;9.766;2023-06-14T00:28:21;13.20;94.40
21261;DHT22;10788;47.930;9.766;2023-06-14T00:30:47;13.20;94.70
21261;DHT22;10788;47.930;9.766;2023-06-14T00:33:12;13.10;94.60
21261;DHT22;10788;47.930;9.766;2023-06-14T00:35:38;13.20;94.70
21261;DHT22;10788;47.930;9.766;2023-06-14T00:38:04;13.10;95.00
21261;DHT22;10788;47.930;9.766;2023-06-14T00:40:30;13.10;94.50
21261;DHT22;10788;47.930;9.766;2023-06-14T00:42:56;13.10;94.80
21261;DHT22;10788;47.930;9.766;2023-06-14T00:45:21;13.20;94.60
21261;DHT22;10788;47.930;9.766;2023-06-14T00:47:47;13.20;95.00
21261;DHT22;10788;47.930;9.766;2023-06-14T00:50:16;13.10;95.40
21261;DHT22;10788;47.930;9.766;2023-06-14T00:52:42;12.90;95.40
21261;DHT22;10788;47.930;9.766;2023-06-14T00:55:08;12.90;95.60
21261;DHT22;10788;47.930;9.766;2023-06-14T00:57:34;12.80;96.20
21261;DHT22;10788;47.930;9.766;2023-06-14T01:00:03;12.70;96.40
21261;DHT22;10788;47.930;9.766;2023-06-14T01:02:34;12.70;96.80
21261;DHT22;10788;47.930;9.766;2023-06-14T01:05:00;12.60;97.40
21261;DHT22;10788;47.930;9.766;2023-06-14T01:10:31;12.60;97.60
21261;DHT22;10788;47.930;9.766;2023-06-14T01:13:15;12.60;97.80
21261;DHT22;10788;47.930;9.766;2023-06-14T01:15:45;12.50;97.80
21261;DHT22;10788;47.930;9.766;2023-06-14T01:18:12;12.50;98.20
21261;DHT22;10788;47.930;9.766;2023-06-14T01:20:42;12.50;98.80
21261;DHT22;10788;47.930;9.766;2023-06-14T01:23:10;12.40;98.90
21261;DHT22;10788;47.930;9.766;2023-06-14T01:25:37;12.30;99.40
21261;DHT22;10788;47.930;9.766;2023-06-14T01:28:06;12.30;99.60
21261;DHT22;10788;47.930;9.766;2023-06-14T01:30:40;12.30;99.70
21261;DHT22;10788;47.930;9.766;2023-06-14T01:33:12;12.30;99.90
21261;DHT22;10788;47.930;9.766;2023-06-14T01:35:39;12.20;99.90
21261;DHT22;10788;47.930;9.766;2023-06-14T01:38:06;12.30;99.90
21261;DHT22;10788;47.930;9.766;2023-06-14T01:40:34;12.20;99.90
21261;DHT22;10788;47.930;9.766;2023-06-14T01:43:01;12.30;99.90
21261;DHT22;10788;47.930;9.766;2023-06-14T01:45:27;12.30;99.90
21261;DHT22;10788;47.930;9.766;2023-06-14T01:47:53;12.30;99.90
21261;DHT22;10788;47.930;9.766;2023-06-14T01:50:20;12.30;99.90
21261;DHT22;10788;47.930;9.766;2023-06-14T01:52:46;12.40;99.90
21261;DHT22;10788;47.930;9.766;2023-06-14T01:55:11;12.30;99.90
21261;DHT22;10788;47.930;9.766;2023-06-14T01:57:37;12.30;99.90
21261;DHT22;10788;47.930;9.766;2023-06-14T02:00:06;12.30;99.90
21261;DHT22;10788;47.930;9.766;2023-06-14T02:02:38;12.20;99.90
21261;DHT22;10788;47.930;9.766;2023-06-14T02:05:04;12.20;99.90
21261;DHT22;10788;47.930;9.766;2023-06-14T02:07:30;12.20;99.90
21261;DHT22;10788;47.930;9.766;2023-06-14T02:09:55;12.10;99.90
21261;DHT22;10788;47.930;9.766;2023-06-14T02:12:21;12.20;99.90
21261;DHT22;10788;47.930;9.766;2023-06-14T02:14:46;12.10;99.90
21261;DHT22;10788;47.930;9.766;2023-06-14T02:17:12;12.10;99.90
21261;DHT22;10788;47.930;9.766;2023-06-14T02:19:38;12.00;99.90
21261;DHT22;10788;47.930;9.766;2023-06-14T02:22:04;12.00;99.90
21261;DHT22;10788;47.930;9.766;2023-06-14T02:24:30;11.90;99.90
21261;DHT22;10788;47.930;9.766;2023-06-14T02:26:55;11.90;99.90
21261;DHT22;10788;47.930;9.766;2023-06-14T02:29:21;11.90;99.90
21261;DHT22;10788;47.930;9.766;2023-06-14T02:31:46;11.80;99.90
21261;DHT22;10788;47.930;9.766;2023-06-14T02:34:14;11.80;99.90
21261;DHT22;10788;47.930;9.766;2023-06-14T02:36:42;11.80;99.90
21261;DHT22;10788;47.930;9.766;2023-06-14T02:39:08;11.60;99.90
21261;DHT22;10788;47.930;9.766;2023-06-14T02:41:37;11.60;99.90
21261;DHT22;10788;47.930;9.766;2023-06-14T02:44:03;11.50;99.90
21261;DHT22;10788;47.930;9.766;2023-06-14T02:46:29;11.60;99.90
21261;DHT22;10788;47.930;9.766;2023-06-14T02:48:54;11.60;99.90
21261;DHT22;10788;47.930;9.766;2023-06-14T02:51:20;11.60;99.90
21261;DHT22;10788;47.930;9.766;2023-06-14T02:53:45;11.50;99.90
21261;DHT22;10788;47.930;9.766;2023-06-14T02:56:11;11.60;99.90
21261;DHT22;10788;47.930;9.766;2023-06-14T02:58:37;11.60;99.90
21261;DHT22;10788;47.930;9.766;2023-06-14T03:01:05;11.60;99.90
21261;DHT22;10788;47.930;9.766;2023-06-14T03:03:31;11.60;99.90
21261;DHT22;10788;47.930;9.766;2023-06-14T03:05:57;11.60;99.90
21261;DHT22;10788;47.930;9.766;2023-06-14T03:08:23;11.60;99.90
21261;DHT22;10788;47.930;9.766;2023-06-14T03:10:52;11.60;99.90
21261;DHT22;10788;47.930;9.766;2023-06-14T03:13:18;11.50;99.90
21261;DHT22;10788;47.930;9.766;2023-06-14T03:15:47;11.40;99.90
21261;DHT22;10788;47.930;9.766;2023-06-14T03:18:15;11.40;99.90
21261;DHT22;10788;47.930;9.766;2023-06-14T03:20:41;11.40;99.90
21261;DHT22;10788;47.930;9.766;2023-06-14T03:23:08;11.40;99.90
21261;DHT22;10788;47.930;9.766;2023-06-14T03:25:33;11.30;99.90
21261;DHT22;10788;47.930;9.766;2023-06-14T03:28:01;11.30;99.90
21261;DHT22;10788;47.930;9.766;2023-06-14T03:30:27;11.30;99.90
21261;DHT22;10788;47.930;9.766;2023-06-14T03:32:53;11.30;99.90
21261;DHT22;10788;47.930;9.766;2023-06-14T03:35:21;11.40;99.90
21261;DHT22;10788;47.930;9.766;2023-06-14T03:37:47;11.20;99.90
21261;DHT22;10788;47.930;9.766;2023-06-14T03:40:14;11.20;99.90
21261;DHT22;10788;47.930;9.766;2023-06-14T03:42:40;11.20;99.90
21261;DHT22;10788;47.930;9.766;2023-06-14T03:45:06;11.20;99.90
21261;DHT22;10788;47.930;9.766;2023-06-14T03:47:32;11.20;99.90
21261;DHT22;10788;47.930;9.766;2023-06-14T03:49:58;11.20;99.90
21261;DHT22;10788;47.930;9.766;2023-06-14T03:52:24;11.20;99.90
21261;DHT22;10788;47.930;9.766;2023-06-14T03:54:50;11.20;99.90
21261;DHT22;10788;47.930;9.766;2023-06-14T03:57:16;11.00;99.90
21261;DHT22;10788;47.930;9.766;2023-06-14T03:59:42;11.10;99.90
21261;DHT22;10788;47.930;9.766;2023-06-14T04:02:08;11.10;99.90
21261;DHT22;10788;47.930;9.766;2023-06-14T04:04:35;11.00;99.90
21261;DHT22;10788;47.930;9.766;2023-06-14T04:07:01;11.10;99.90
21261;DHT22;10788;47.930;9.766;2023-06-14T04:09:29;11.10;99.90
21261;DHT22;10788;47.930;9.766;2023-06-14T04:11:55;11.10;99.90
21261;DHT22;10788;47.930;9.766;2023-06-14T04:14:21;11.00;99.90
21261;DHT22;10788;47.930;9.766;2023-06-14T04:16:47;11.10;99.90
21261;DHT22;10788;47.930;9.766;2023-06-14T04:19:13;11.10;99.90
21261;DHT22;10788;47.930;9.766;2023-06-14T04:21:39;11.10;99.90
21261;DHT22;10788;47.930;9.766;2023-06-14T04:24:05;11.00;99.90
21261;DHT22;10788;47.930;9.766;2023-06-14T04:26:32;11.00;99.90
21261;DHT22;10788;47.930;9.766;2023-06-14T04:28:59;11.00;99.90
21261;DHT22;10788;47.930;9.766;2023-06-14T04:31:28;11.00;99.90
21261;DHT22;10788;47.930;9.766;2023-06-14T04:33:55;11.00;99.90
21261;DHT22;10788;47.930;9.766;2023-06-14T04:36:21;11.10;99.90
21261;DHT22;10788;47.930;9.766;2023-06-14T04:38:47;11.10;99.90
21261;DHT22;10788;47.930;9.766;2023-06-14T04:41:14;11.10;99.90
21261;DHT22;10788;47.930;9.766;2023-06-14T04:43:41;11.10;99.90
21261;DHT22;10788;47.930;9.766;2023-06-14T04:46:08;11.20;99.90
21261;DHT22;10788;47.930;9.766;2023-06-14T04:48:40;11.20;99.90
21261;DHT22;10788;47.930;9.766;2023-06-14T04:51:07;11.30;99.90
21261;DHT22;10788;47.930;9.766;2023-06-14T04:53:33;11.30;99.90
21261;DHT22;10788;47.930;9.766;2023-06-14T04:55:59;11.50;99.90
21261;DHT22;10788;47.930;9.766;2023-06-14T04:58:26;11.50;99.90
21261;DHT22;10788;47.930;9.766;2023-06-14T05:00:53;11.50;99.90
21261;DHT22;10788;47.930;9.766;2023-06-14T05:03:19;11.60;99.90
21261;DHT22;10788;47.930;9.766;2023-06-14T05:05:46;11.70;99.90
21261;DHT22;10788;47.930;9.766;2023-06-14T05:08:12;11.70;99.90
21261;DHT22;10788;47.930;9.766;2023-06-14T05:10:38;11.90;99.90
21261;DHT22;10788;47.930;9.766;2023-06-14T05:13:03;11.90;99.90
21261;DHT22;10788;47.930;9.766;2023-06-14T05:15:29;12.00;99.90
21261;DHT22;10788;47.930;9.766;2023-06-14T05:17:55;12.10;99.90
21261;DHT22;10788;47.930;9.766;2023-06-14T05:20:24;12.20;99.90
21261;DHT22;10788;47.930;9.766;2023-06-14T05:22:53;12.20;99.90
21261;DHT22;10788;47.930;9.766;2023-06-14T05:25:19;12.40;99.90
21261;DHT22;10788;47.930;9.766;2023-06-14T05:27:46;12.60;99.90
21261;DHT22;10788;47.930;9.766;2023-06-14T05:30:12;12.60;99.90
21261;DHT22;10788;47.930;9.766;2023-06-14T05:32:38;12.70;99.90
21261;DHT22;10788;47.930;9.766;2023-06-14T05:35:04;12.80;99.90
21261;DHT22;10788;47.930;9.766;2023-06-14T05:37:31;12.90;99.90
21261;DHT22;10788;47.930;9.766;2023-06-14T05:39:57;13.00;99.90
21261;DHT22;10788;47.930;9.766;2023-06-14T05:42:22;13.10;99.90
21261;DHT22;10788;47.930;9.766;2023-06-14T05:44:48;13.20;99.90
21261;DHT22;10788;47.930;9.766;2023-06-14T05:47:14;13.30;99.90
21261;DHT22;10788;47.930;9.766;2023-06-14T05:49:39;13.40;99.90
21261;DHT22;10788;47.930;9.766;2023-06-14T05:52:05;13.50;99.90
21261;DHT22;10788;47.930;9.766;2023-06-14T05:54:31;13.60;99.90
21261;DHT22;10788;47.930;9.766;2023-06-14T05:56:57;13.70;99.90
21261;DHT22;10788;47.930;9.766;2023-06-14T05:59:27;13.80;99.90
21261;DHT22;10788;47.930;9.766;2023-06-14T06:01:53;14.00;99.90
21261;DHT22;10788;47.930;9.766;2023-06-14T06:04:19;14.10;99.90
21261;DHT22;10788;47.930;9.766;2023-06-14T06:06:45;14.20;99.90
21261;DHT22;10788;47.930;9.766;2023-06-14T06:09:12;14.30;99.90
21261;DHT22;10788;47.930;9.766;2023-06-14T06:11:39;14.50;99.90
21261;DHT22;10788;47.930;9.766;2023-06-14T06:14:05;14.60;99.90
21261;DHT22;10788;47.930;9.766;2023-06-14T06:16:31;14.70;99.90
21261;DHT22;10788;47.930;9.766;2023-06-14T06:18:56;14.90;99.90
21261;DHT22;10788;47.930;9.766;2023-06-14T06:21:22;15.00;99.90
21261;DHT22;10788;47.930;9.766;2023-06-14T06:23:47;15.10;99.90
21261;DHT22;10788;47.930;9.766;2023-06-14T06:26:13;15.30;99.90
21261;DHT22;10788;47.930;9.766;2023-06-14T06:28:39;15.40;99.90
21261;DHT22;10788;47.930;9.766;2023-06-14T06:31:04;15.60;99.90
21261;DHT22;10788;47.930;9.766;2023-06-14T06:33:30;15.70;99.90
21261;DHT22;10788;47.930;9.766;2023-06-14T06:35:56;15.80;99.90
21261;DHT22;10788;47.930;9.766;2023-06-14T06:38:22;16.00;99.90
21261;DHT22;10788;47.930;9.766;2023-06-14T06:40:47;16.30;99.90
21261;DHT22;10788;47.930;9.766;2023-06-14T06:43:13;16.40;99.90
21261;DHT22;10788;47.930;9.766;2023-06-14T06:45:39;16.50;99.90
21261;DHT22;10788;47.930;9.766;2023-06-14T06:48:05;16.70;99.90
21261;DHT22;10788;47.930;9.766;2023-06-14T06:50:31;16.90;99.90
21261;DHT22;10788;47.930;9.766;2023-06-14T06:52:57;17.10;99.90
21261;DHT22;10788;47.930;9.766;2023-06-14T06:55:22;17.30;99.90
21261;DHT22;10788;47.930;9.766;2023-06-14T06:57:48;17.40;99.90
21261;DHT22;10788;47.930;9.766;2023-06-14T07:00:15;17.60;99.90
21261;DHT22;10788;47.930;9.766;2023-06-14T07:02:41;17.80;99.90
21261;DHT22;10788;47.930;9.766;2023-06-14T07:05:07;18.00;99.90
21261;DHT22;10788;47.930;9.766;2023-06-14T07:07:34;18.10;99.90
21261;DHT22;10788;47.930;9.766;2023-06-14T07:09:59;18.20;99.90
21261;DHT22;10788;47.930;9.766;2023-06-14T07:12:26;18.40;99.90
21261;DHT22;10788;47.930;9.766;2023-06-14T07:14:51;18.60;99.90
21261;DHT22;10788;47.930;9.766;2023-06-14T07:17:17;18.70;99.90
21261;DHT22;10788;47.930;9.766;2023-06-14T07:19:42;18.80;99.90
21261;DHT22;10788;47.930;9.766;2023-06-14T07:22:08;18.90;99.90
21261;DHT22;10788;47.930;9.766;2023-06-14T07:24:33;19.00;99.90
21261;DHT22;10788;47.930;9.766;2023-06-14T07:27:01;19.10;99.90
21261;DHT22;10788;47.930;9.766;2023-06-14T07:29:28;19.20;99.90
21261;DHT22;10788;47.930;9.766;2023-06-14T07:31:54;19.30;99.90
21261;DHT22;10788;47.930;9.766;2023-06-14T07:34:19;19.40;99.90
21261;DHT22;10788;47.930;9.766;2023-06-14T07:36:45;19.50;99.90
21261;DHT22;10788;47.930;9.766;2023-06-14T07:39:11;19.70;99.90
21261;DHT22;10788;47.930;9.766;2023-06-14T07:41:37;19.80;99.90
21261;DHT22;10788;47.930;9.766;2023-06-14T07:44:03;20.00;99.90
21261;DHT22;10788;47.930;9.766;2023-06-14T07:46:28;20.20;99.90
21261;DHT22;10788;47.930;9.766;2023-06-14T07:48:54;20.30;99.50
21261;DHT22;10788;47.930;9.766;2023-06-14T07:51:20;20.40;97.80
21261;DHT22;10788;47.930;9.766;2023-06-14T07:53:48;20.50;99.60
21261;DHT22;10788;47.930;9.766;2023-06-14T07:56:14;20.60;99.90
21261;DHT22;10788;47.930;9.766;2023-06-14T07:58:39;20.80;99.90
21261;DHT22;10788;47.930;9.766;2023-06-14T08:01:05;21.00;99.90
21261;DHT22;10788;47.930;9.766;2023-06-14T08:03:33;21.10;99.90
21261;DHT22;10788;47.930;9.766;2023-06-14T08:05:59;21.20;96.70
21261;DHT22;10788;47.930;9.766;2023-06-14T08:08:26;21.30;96.00
21261;DHT22;10788;47.930;9.766;2023-06-14T08:10:51;21.30;92.70
21261;DHT22;10788;47.930;9.766;2023-06-14T08:13:17;21.50;94.10
21261;DHT22;10788;47.930;9.766;2023-06-14T08:15:43;21.60;94.10
21261;DHT22;10788;47.930;9.766;2023-06-14T08:18:09;21.70;91.40
21261;DHT22;10788;47.930;9.766;2023-06-14T08:20:35;21.80;91.00
21261;DHT22;10788;47.930;9.766;2023-06-14T08:23:02;22.00;92.70
21261;DHT22;10788;47.930;9.766;2023-06-14T08:25:29;22.10;90.60
21261;DHT22;10788;47.930;9.766;2023-06-14T08:27:55;22.30;90.70
21261;DHT22;10788;47.930;9.766;2023-06-14T08:30:21;22.40;86.40
21261;DHT22;10788;47.930;9.766;2023-06-14T08:32:47;22.40;83.80
21261;DHT22;10788;47.930;9.766;2023-06-14T08:35:13;22.40;81.50
21261;DHT22;10788;47.930;9.766;2023-06-14T08:37:40;22.50;79.50
21261;DHT22;10788;47.930;9.766;2023-06-14T08:40:21;22.50;75.50
21261;DHT22;10788;47.930;9.766;2023-06-14T08:42:51;22.60;76.80
21261;DHT22;10788;47.930;9.766;2023-06-14T08:45:22;22.80;77.20
21261;DHT22;10788;47.930;9.766;2023-06-14T08:47:48;22.80;78.80
21261;DHT22;10788;47.930;9.766;2023-06-14T08:50:26;22.90;78.00
21261;DHT22;10788;47.930;9.766;2023-06-14T08:52:57;23.00;81.70
21261;DHT22;10788;47.930;9.766;2023-06-14T08:55:26;23.10;80.40
21261;DHT22;10788;47.930;9.766;2023-06-14T08:57:56;23.20;78.90
21261;DHT22;10788;47.930;9.766;2023-06-14T09:00:26;23.20;76.40
21261;DHT22;10788;47.930;9.766;2023-06-14T09:02:53;23.00;74.40
21261;DHT22;10788;47.930;9.766;2023-06-14T09:05:25;23.10;73.90
21261;DHT22;10788;47.930;9.766;2023-06-14T09:07:51;22.80;72.70
21261;DHT22;10788;47.930;9.766;2023-06-14T09:10:18;22.80;71.70
21261;DHT22;10788;47.930;9.766;2023-06-14T09:12:43;23.00;72.20
21261;DHT22;10788;47.930;9.766;2023-06-14T09:15:09;23.00;72.00
21261;DHT22;10788;47.930;9.766;2023-06-14T09:17:36;23.20;75.30
21261;DHT22;10788;47.930;9.766;2023-06-14T09:20:06;23.50;77.80
21261;DHT22;10788;47.930;9.766;2023-06-14T09:22:33;23.80;77.80
21261;DHT22;10788;47.930;9.766;2023-06-14T09:24:59;23.80;75.60
21261;DHT22;10788;47.930;9.766;2023-06-14T09:27:29;24.00;73.00
21261;DHT22;10788;47.930;9.766;2023-06-14T09:29:54;23.90;72.90
21261;DHT22;10788;47.930;9.766;2023-06-14T09:32:23;24.20;73.90
21261;DHT22;10788;47.930;9.766;2023-06-14T09:34:50;24.10;73.60
21261;DHT22;10788;47.930;9.766;2023-06-14T09:37:31;24.30;73.90
21261;DHT22;10788;47.930;9.766;2023-06-14T09:39:58;24.30;74.40
21261;DHT22;10788;47.930;9.766;2023-06-14T09:42:24;24.40;73.60
21261;DHT22;10788;47.930;9.766;2023-06-14T09:44:54;24.70;74.40
21261;DHT22;10788;47.930;9.766;2023-06-14T09:47:21;24.60;72.80
21261;DHT22;10788;47.930;9.766;2023-06-14T09:49:47;24.80;72.50
21261;DHT22;10788;47.930;9.766;2023-06-14T09:52:18;24.90;72.80
21261;DHT22;10788;47.930;9.766;2023-06-14T09:54:46;24.90;71.50
21261;DHT22;10788;47.930;9.766;2023-06-14T09:57:14;25.00;72.20
21261;DHT22;10788;47.930;9.766;2023-06-14T09:59:44;24.70;71.20
21261;DHT22;10788;47.930;9.766;2023-06-14T10:02:18;24.60;70.10
21261;DHT22;10788;47.930;9.766;2023-06-14T10:04:50;24.80;70.80
21261;DHT22;10788;47.930;9.766;2023-06-14T10:07:20;24.80;70.90
21261;DHT22;10788;47.930;9.766;2023-06-14T10:09:47;24.90;70.10
21261;DHT22;10788;47.930;9.766;2023-06-14T10:12:17;24.90;70.80
21261;DHT22;10788;47.930;9.766;2023-06-14T10:14:49;24.90;69.90
21261;DHT22;10788;47.930;9.766;2023-06-14T10:17:51;25.10;73.60
21261;DHT22;10788;47.930;9.766;2023-06-14T10:20:35;25.20;72.20
21261;DHT22;10788;47.930;9.766;2023-06-14T10:23:23;25.30;70.80
21261;DHT22;10788;47.930;9.766;2023-06-14T10:25:50;25.40;72.10
21261;DHT22;10788;47.930;9.766;2023-06-14T10:28:22;25.40;72.60
21261;DHT22;10788;47.930;9.766;2023-06-14T10:31:09;25.60;71.00
21261;DHT22;10788;47.930;9.766;2023-06-14T10:33:47;25.30;70.60
21261;DHT22;10788;47.930;9.766;2023-06-14T10:36:30;25.60;72.10
21261;DHT22;10788;47.930;9.766;2023-06-14T10:42:01;25.60;71.10
21261;DHT22;10788;47.930;9.766;2023-06-14T10:47:10;25.60;70.40
21261;DHT22;10788;47.930;9.766;2023-06-14T10:52:13;25.70;71.30
21261;DHT22;10788;47.930;9.766;2023-06-14T10:57:31;25.80;69.50
21261;DHT22;10788;47.930;9.766;2023-06-14T11:00:01;25.10;66.80
21261;DHT22;10788;47.930;9.766;2023-06-14T11:05:16;25.90;68.90
21261;DHT22;10788;47.930;9.766;2023-06-14T11:10:39;25.90;66.50
21261;DHT22;10788;47.930;9.766;2023-06-14T11:13:06;25.90;70.00
21261;DHT22;10788;47.930;9.766;2023-06-14T11:15:33;26.00;68.10
21261;DHT22;10788;47.930;9.766;2023-06-14T11:18:05;26.10;69.40
21261;DHT22;10788;47.930;9.766;2023-06-14T11:20:32;26.30;68.00
21261;DHT22;10788;47.930;9.766;2023-06-14T11:22:58;26.30;69.80
21261;DHT22;10788;47.930;9.766;2023-06-14T11:25:24;26.10;66.00
21261;DHT22;10788;47.930;9.766;2023-06-14T11:27:50;26.10;67.30
21261;DHT22;10788;47.930;9.766;2023-06-14T11:30:16;26.10;67.20
21261;DHT22;10788;47.930;9.766;2023-06-14T11:32:45;26.20;67.50
21261;DHT22;10788;47.930;9.766;2023-06-14T11:35:11;26.30;68.20
21261;DHT22;10788;47.930;9.766;2023-06-14T11:37:37;26.30;68.40
21261;DHT22;10788;47.930;9.766;2023-06-14T11:40:04;26.50;67.80
21261;DHT22;10788;47.930;9.766;2023-06-14T11:42:37;26.50;66.90
21261;DHT22;10788;47.930;9.766;2023-06-14T11:45:04;26.20;66.80
21261;DHT22;10788;47.930;9.766;2023-06-14T11:47:38;26.50;67.70
21261;DHT22;10788;47.930;9.766;2023-06-14T11:50:05;26.60;66.80
21261;DHT22;10788;47.930;9.766;2023-06-14T11:52:32;26.80;66.20
21261;DHT22;10788;47.930;9.766;2023-06-14T11:54:58;26.80;65.30
21261;DHT22;10788;47.930;9.766;2023-06-14T11:57:25;26.80;64.30
21261;DHT22;10788;47.930;9.766;2023-06-14T11:59:50;26.70;67.20
21261;DHT22;10788;47.930;9.766;2023-06-14T12:02:16;26.50;65.60
21261;DHT22;10788;47.930;9.766;2023-06-14T12:04:49;26.50;67.80
21261;DHT22;10788;47.930;9.766;2023-06-14T12:07:16;26.20;68.20
21261;DHT22;10788;47.930;9.766;2023-06-14T12:12:24;26.40;65.80
21261;DHT22;10788;47.930;9.766;2023-06-14T12:14:54;26.50;66.50
21261;DHT22;10788;47.930;9.766;2023-06-14T12:17:20;26.40;65.80
21261;DHT22;10788;47.930;9.766;2023-06-14T12:19:46;26.20;66.30
21261;DHT22;10788;47.930;9.766;2023-06-14T12:22:16;26.20;66.70
21261;DHT22;10788;47.930;9.766;2023-06-14T12:24:45;26.30;65.00
21261;DHT22;10788;47.930;9.766;2023-06-14T12:27:12;26.10;65.20
21261;DHT22;10788;47.930;9.766;2023-06-14T12:29:43;25.70;65.00
21261;DHT22;10788;47.930;9.766;2023-06-14T12:32:09;25.80;65.80
21261;DHT22;10788;47.930;9.766;2023-06-14T12:34:35;25.70;64.50
21261;DHT22;10788;47.930;9.766;2023-06-14T12:37:01;25.60;64.40
21261;DHT22;10788;47.930;9.766;2023-06-14T12:39:29;25.60;66.10
21261;DHT22;10788;47.930;9.766;2023-06-14T12:41:57;25.80;65.70
21261;DHT22;10788;47.930;9.766;2023-06-14T12:44:23;26.00;65.30
21261;DHT22;10788;47.930;9.766;2023-06-14T12:46:48;25.90;65.80
21261;DHT22;10788;47.930;9.766;2023-06-14T12:49:16;25.90;65.50
21261;DHT22;10788;47.930;9.766;2023-06-14T12:51:42;25.90;64.00
21261;DHT22;10788;47.930;9.766;2023-06-14T12:54:08;25.90;66.50
21261;DHT22;10788;47.930;9.766;2023-06-14T12:56:34;26.10;64.80
21261;DHT22;10788;47.930;9.766;2023-06-14T12:59:00;26.10;64.20
21261;DHT22;10788;47.930;9.766;2023-06-14T13:01:25;26.10;64.40
21261;DHT22;10788;47.930;9.766;2023-06-14T13:03:51;26.20;65.00
21261;DHT22;10788;47.930;9.766;2023-06-14T13:06:21;26.30;67.20
21261;DHT22;10788;47.930;9.766;2023-06-14T13:08:47;26.50;66.40
21261;DHT22;10788;47.930;9.766;2023-06-14T13:11:13;26.50;66.80
21261;DHT22;10788;47.930;9.766;2023-06-14T13:13:39;26.20;65.60
21261;DHT22;10788;47.930;9.766;2023-06-14T13:16:04;26.20;65.70
21261;DHT22;10788;47.930;9.766;2023-06-14T13:18:30;26.10;67.70
21261;DHT22;10788;47.930;9.766;2023-06-14T13:20:56;26.20;68.50
21261;DHT22;10788;47.930;9.766;2023-06-14T13:23:21;26.40;68.50
21261;DHT22;10788;47.930;9.766;2023-06-14T13:25:47;26.50;67.50
21261;DHT22;10788;47.930;9.766;2023-06-14T13:28:15;26.60;67.80
21261;DHT22;10788;47.930;9.766;2023-06-14T13:30:40;26.60;66.70
21261;DHT22;10788;47.930;9.766;2023-06-14T13:33:06;26.60;66.70
21261;DHT22;10788;47.930;9.766;2023-06-14T13:35:32;26.50;67.30
21261;DHT22;10788;47.930;9.766;2023-06-14T13:37:57;26.30;67.50
21261;DHT22;10788;47.930;9.766;2023-06-14T13:40:23;26.20;66.60
21261;DHT22;10788;47.930;9.766;2023-06-14T13:42:48;26.20;66.60
21261;DHT22;10788;47.930;9.766;2023-06-14T13:45:15;26.20;68.40
21261;DHT22;10788;47.930;9.766;2023-06-14T13:47:41;26.20;66.40
21261;DHT22;10788;47.930;9.766;2023-06-14T13:50:07;26.20;67.00
21261;DHT22;10788;47.930;9.766;2023-06-14T13:52:33;26.20;67.00
21261;DHT22;10788;47.930;9.766;2023-06-14T13:55:00;26.30;68.00
21261;DHT22;10788;47.930;9.766;2023-06-14T13:57:26;26.00;67.30
21261;DHT22;10788;47.930;9.766;2023-06-14T13:59:51;26.10;68.80
21261;DHT22;10788;47.930;9.766;2023-06-14T14:02:19;26.10;68.30
21261;DHT22;10788;47.930;9.766;2023-06-14T14:04:45;26.10;69.80
21261;DHT22;10788;47.930;9.766;2023-06-14T14:07:16;26.20;70.30
21261;DHT22;10788;47.930;9.766;2023-06-14T14:09:42;26.20;68.80
21261;DHT22;10788;47.930;9.766;2023-06-14T14:12:08;26.30;68.00
21261;DHT22;10788;47.930;9.766;2023-06-14T14:14:34;26.20;68.40
21261;DHT22;10788;47.930;9.766;2023-06-14T14:16:59;26.10;68.90
21261;DHT22;10788;47.930;9.766;2023-06-14T14:19:25;26.10;67.50
21261;DHT22;10788;47.930;9.766;2023-06-14T14:21:51;25.90;67.80
21261;DHT22;10788;47.930;9.766;2023-06-14T14:24:18;25.60;68.70
21261;DHT22;10788;47.930;9.766;2023-06-14T14:26:44;25.60;69.00
21261;DHT22;10788;47.930;9.766;2023-06-14T14:29:13;25.20;67.90
21261;DHT22;10788;47.930;9.766;2023-06-14T14:31:38;25.30;69.60
21261;DHT22;10788;47.930;9.766;2023-06-14T14:34:04;25.60;68.90
21261;DHT22;10788;47.930;9.766;2023-06-14T14:36:30;25.70;68.40
21261;DHT22;10788;47.930;9.766;2023-06-14T14:38:56;25.90;69.50
21261;DHT22;10788;47.930;9.766;2023-06-14T14:41:21;25.90;69.30
21261;DHT22;10788;47.930;9.766;2023-06-14T14:43:47;26.00;69.00
21261;DHT22;10788;47.930;9.766;2023-06-14T14:46:13;26.00;69.20
21261;DHT22;10788;47.930;9.766;2023-06-14T14:48:38;26.00;69.10
21261;DHT22;10788;47.930;9.766;2023-06-14T14:51:04;25.90;67.60
21261;DHT22;10788;47.930;9.766;2023-06-14T14:53:29;25.60;68.10
21261;DHT22;10788;47.930;9.766;2023-06-14T14:55:55;25.70;70.30
21261;DHT22;10788;47.930;9.766;2023-06-14T14:58:21;25.70;70.30
21261;DHT22;10788;47.930;9.766;2023-06-14T15:00:47;25.90;69.80
21261;DHT22;10788;47.930;9.766;2023-06-14T15:03:13;25.70;68.90
21261;DHT22;10788;47.930;9.766;2023-06-14T15:05:39;25.80;69.10
21261;DHT22;10788;47.930;9.766;2023-06-14T15:08:05;25.90;69.10
21261;DHT22;10788;47.930;9.766;2023-06-14T15:10:37;26.00;68.80
21261;DHT22;10788;47.930;9.766;2023-06-14T15:13:03;26.00;67.90
21261;DHT22;10788;47.930;9.766;2023-06-14T15:15:28;25.90;67.70
21261;DHT22;10788;47.930;9.766;2023-06-14T15:17:54;26.00;68.90
21261;DHT22;10788;47.930;9.766;2023-06-14T15:20:20;26.10;67.20
21261;DHT22;10788;47.930;9.766;2023-06-14T15:22:45;26.00;67.20
21261;DHT22;10788;47.930;9.766;2023-06-14T15:25:11;26.00;67.80
21261;DHT22;10788;47.930;9.766;2023-06-14T15:27:37;25.90;68.20
21261;DHT22;10788;47.930;9.766;2023-06-14T15:30:02;25.90;69.50
21261;DHT22;10788;47.930;9.766;2023-06-14T15:32:28;25.90;70.40
21261;DHT22;10788;47.930;9.766;2023-06-14T15:34:54;25.90;70.00
21261;DHT22;10788;47.930;9.766;2023-06-14T15:37:20;26.00;68.60
21261;DHT22;10788;47.930;9.766;2023-06-14T15:39:45;26.00;69.80
21261;DHT22;10788;47.930;9.766;2023-06-14T15:42:11;25.90;70.10
21261;DHT22;10788;47.930;9.766;2023-06-14T15:44:37;25.90;68.40
21261;DHT22;10788;47.930;9.766;2023-06-14T15:47:03;25.70;67.80
21261;DHT22;10788;47.930;9.766;2023-06-14T15:49:28;25.70;69.80
21261;DHT22;10788;47.930;9.766;2023-06-14T15:51:55;25.60;69.50